Time;durP1;ratioP1;P1;durP2;ratioP2;P2;SDS_P1;SDS_P2;PMS_P1;PMS_P2;Temp;Humidity;BMP_temperature;BMP_pressure;BME280_temperature;BME280_humidity;BME280_pressure;Samples;Min_cycle;Max_cycle;Signal;HPM_P1;HPM_P2
2022/10/12 00:00:04;;;;;;;;;;;;;;;;;;1043094;28;1744;-49
2022/10/12 00:00:54;;;;;;;;;;;;;;;;;;1041661;28;2423;-49
2022/10/12 00:01:37;;;;;;;;;;;;;;;;;;1048769;28;2474;-46
2022/10/12 00:02:08;;;;;;;;;;;;;;;;;;1038948;28;1645;-45
2022/10/12 00:02:39;;;;;;;;;;;;;;;;;;1040177;28;2414;-52
2022/10/12 00:03:11;;;;;;;;;;;;;;;;;;1042609;28;2627;-49
2022/10/12 00:03:41;;;;;;;;;;;;;;;;;;1045574;28;2072;-49
2022/10/12 00:04:11;;;;;;;;;;;;;;;;;;1053512;28;2521;-49
2022/10/12 00:04:42;;;;;;;;;;;;;;;;;;1053818;28;3977;-46
2022/10/12 00:05:12;;;;;;;;;;;;;;;;;;1046643;28;2363;-49
2022/10/12 00:05:43;;;;;;;;;;;;;;;;;;1043419;28;2055;-47
2022/10/12 00:06:15;;;;;;;;;;;;;;;;;;1042925;28;2153;-47
2022/10/12 00:06:45;;;;;;;;;;;;;;;;;;1044119;28;2105;-49
2022/10/12 00:07:22;;;;;;;;;;;;;;;;;;1051908;28;1833;-50
2022/10/12 00:07:52;;;;;;;;;;;;;;;;;;1053906;28;2062;-47
2022/10/12 00:08:22;;;;;;;;;;;;;;;;;;1052643;28;2016;-51
2022/10/12 00:08:53;;;;;;;;;;;;;;;;;;1052117;28;2140;-50
2022/10/12 00:09:24;;;;;;;;;;;;;;;;;;1049460;28;1934;-50
2022/10/12 00:09:54;;;;;;;;;;;;;;;;;;1047784;28;2482;-56
2022/10/12 00:10:25;;;;;;;;;;;;;;;;;;1050465;28;1966;-43
2022/10/12 00:10:55;;;;;;;;;;;;;;;;;;1051666;28;1442;-48
2022/10/12 00:11:27;;;;;;;;;;;;;;;;;;1052708;28;2122;-50
2022/10/12 00:11:58;;;;;;;;;;;;;;;;;;1049462;28;2016;-46
2022/10/12 00:12:28;;;;;;;;;;;;;;;;;;1044908;28;2015;-53
2022/10/12 00:12:59;;;;;;;;;;;;;;;;;;1045505;28;2469;-51
2022/10/12 00:13:29;;;;;;;;;;;;;;;;;;1047186;28;2081;-47
2022/10/12 00:14:00;;;;;;;;;;;;;;;;;;1049664;28;2032;-49
2022/10/12 00:14:30;;;;;;;;;;;;;;;;;;1052625;28;1730;-48
2022/10/12 00:15:01;;;;;;;;;;;;;;;;;;1051701;28;1394;-52
2022/10/12 00:15:35;;;;;;;;;;;;;;;;;;1049624;28;2331;-50
2022/10/12 00:16:07;;;;;;;;;;;;;;;;;;1044754;28;2289;-48
2022/10/12 00:16:39;;;;;;;;;;;;;;;;;;1036989;28;2163;-48
2022/10/12 00:17:09;;;;;;;;;;;;;;;;;;1032381;28;2446;-45
2022/10/12 00:17:39;;;;;;;;;;;;;;;;;;1037411;28;2527;-46
2022/10/12 00:18:10;;;;;;;;;;;;;;;;;;1038150;28;2064;-46
2022/10/12 00:18:40;;;;;;;;;;;;;;;;;;1039921;28;2057;-52
2022/10/12 00:19:11;;;;;;;;;;;;;;;;;;1050207;28;2669;-50
2022/10/12 00:19:41;;;;;;;;;;;;;;;;;;1049287;28;3087;-49
2022/10/12 00:20:12;;;;;;;;;;;;;;;;;;1047015;28;1651;-48
2022/10/12 00:20:43;;;;;;;;;;;;;;;;;;1051869;28;1603;-47
2022/10/12 00:21:15;;;;;;;;;;;;;;;;;;1044703;28;2054;-50
2022/10/12 00:21:45;;;;;;;;;;;;;;;;;;1039009;28;2180;-45
2022/10/12 00:22:16;;;;;;;;;;;;;;;;;;1039058;28;2126;-48
2022/10/12 00:22:46;;;;;;;;;;;;;;;;;;1038986;28;1726;-49
2022/10/12 00:23:17;;;;;;;;;;;;;;;;;;1045212;28;2313;-46
2022/10/12 00:23:48;;;;;;;;;;;;;;;;;;1052991;28;2304;-45
2022/10/12 00:24:19;;;;;;;;;;;;;;;;;;1044140;28;2053;-49
2022/10/12 00:24:52;;;;;;;;;;;;;;;;;;1044980;28;1666;-49
2022/10/12 00:25:23;;;;;;;;;;;;;;;;;;1041353;28;2547;-49
2022/10/12 00:25:54;;;;;;;;;;;;;;;;;;1040490;28;1654;-50
2022/10/12 00:26:24;;;;;;;;;;;;;;;;;;1045857;28;2062;-49
2022/10/12 00:26:55;;;;;;;;;;;;;;;;;;1046962;28;1697;-50
2022/10/12 00:27:26;;;;;;;;;;;;;;;;;;1045259;28;2254;-48
2022/10/12 00:27:57;;;;;;;;;;;;;;;;;;1046089;28;2022;-46
2022/10/12 00:28:28;;;;;;;;;;;;;;;;;;1042997;28;1972;-46
2022/10/12 00:29:00;;;;;;;;;;;;;;;;;;1042849;28;1810;-52
2022/10/12 00:29:31;;;;;;;;;;;;;;;;;;1044516;28;2118;-49
2022/10/12 00:30:02;;;;;;;;;;;;;;;;;;1048960;28;2273;-47
2022/10/12 00:30:33;;;;;;;;;;;;;;;;;;1043731;28;1465;-50
2022/10/12 00:31:15;;;;;;;;;;;;;;;;;;1035893;28;3040;-51
2022/10/12 00:31:46;;;;;;;;;;;;;;;;;;1038589;28;2517;-51
2022/10/12 00:32:17;;;;;;;;;;;;;;;;;;1042756;28;2454;-48
2022/10/12 00:32:48;;;;;;;;;;;;;;;;;;1040074;28;2252;-48
2022/10/12 00:33:19;;;;;;;;;;;;;;;;;;1044138;28;2405;-49
2022/10/12 00:33:49;;;;;;;;;;;;;;;;;;1043872;28;2979;-51
2022/10/12 00:34:19;;;;;;;;;;;;;;;;;;1042461;28;2254;-45
2022/10/12 00:34:49;;;;;;;;;;;;;;;;;;1052391;28;2410;-45
2022/10/12 00:35:20;;;;;;;;;;;;;;;;;;1048771;28;2804;-47
2022/10/12 00:35:51;;;;;;;;;;;;;;;;;;1051574;28;2490;-47
2022/10/12 00:36:26;;;;;;;;;;;;;;;;;;1049993;28;2103;-49
2022/10/12 00:36:56;;;;;;;;;;;;;;;;;;1048017;28;1857;-49
2022/10/12 00:37:27;;;;;;;;;;;;;;;;;;1052188;28;2226;-48
2022/10/12 00:37:57;;;;;;;;;;;;;;;;;;1055432;28;2105;-47
2022/10/12 00:38:28;;;;;;;;;;;;;;;;;;1056059;28;1946;-45
2022/10/12 00:39:13;;;;;;;;;;;;;;;;;;1050951;28;1861;-49
2022/10/12 00:39:51;;;;;;;;;;;;;;;;;;1051770;28;2028;-48
2022/10/12 00:40:22;;;;;;;;;;;;;;;;;;1053416;28;2588;-50
2022/10/12 00:40:53;;;;;;;;;;;;;;;;;;1044407;28;1943;-50
2022/10/12 00:41:31;;;;;;;;;;;;;;;;;;1043200;28;1576;-47
2022/10/12 00:42:01;;;;;;;;;;;;;;;;;;1043909;28;2782;-49
2022/10/12 00:42:32;;;;;;;;;;;;;;;;;;1048607;28;2304;-52
2022/10/12 00:43:03;;;;;;;;;;;;;;;;;;1049409;28;2213;-46
2022/10/12 00:43:40;;;;;;;;;;;;;;;;;;1039920;28;2091;-49
2022/10/12 00:44:29;;;;;;;;;;;;;;;;;;1040197;28;2765;-50
2022/10/12 00:44:59;;;;;;;;;;;;;;;;;;1043807;28;2161;-49
2022/10/12 00:45:30;;;;;;;;;;;;;;;;;;1053293;28;2182;-50
2022/10/12 00:46:02;;;;;;;;;;;;;;;;;;1051940;28;1950;-48
2022/10/12 00:46:36;;;;;;;;;;;;;;;;;;1053822;28;2036;-51
2022/10/12 00:47:11;;;;;;;;;;;;;;;;;;1055979;28;2016;-48
2022/10/12 00:47:52;;;;;;;;;;;;;;;;;;1049130;28;2161;-48
2022/10/12 00:48:29;;;;;;;;;;;;;;;;;;1049905;28;2553;-47
2022/10/12 00:49:16;;;;;;;;;;;;;;;;;;1051579;28;2521;-50
2022/10/12 00:49:52;;;;;;;;;;;;;;;;;;1051900;28;2008;-48
2022/10/12 00:50:25;;;;;;;;;;;;;;;;;;1053627;28;2050;-51
2022/10/12 00:50:59;;;;;;;;;;;;;;;;;;1047706;28;2573;-46
2022/10/12 00:51:31;;;;;;;;;;;;;;;;;;1047276;28;2017;-44
2022/10/12 00:52:04;;;;;;;;;;;;;;;;;;1048277;28;2218;-45
2022/10/12 00:52:55;;;;;;;;;;;;;;;;;;1048001;28;2178;-46
2022/10/12 00:53:27;;;;;;;;;;;;;;;;;;1051342;28;2387;-50
2022/10/12 00:54:00;;;;;;;;;;;;;;;;;;1054455;28;2184;-47
2022/10/12 00:54:32;;;;;;;;;;;;;;;;;;1055549;28;1961;-49
2022/10/12 00:55:03;;;;;;;;;;;;;;;;;;1053867;28;2700;-49
2022/10/12 00:55:35;;;;;;;;;;;;;;;;;;1053861;28;2500;-49
2022/10/12 00:56:08;;;;;;;;;;;;;;;;;;1054700;28;2649;-47
2022/10/12 00:56:41;;;;;;;;;;;;;;;;;;1052717;28;2000;-49
2022/10/12 00:57:12;;;;;;;;;;;;;;;;;;1052508;28;2661;-46
2022/10/12 00:57:43;;;;;;;;;;;;;;;;;;1051729;28;2254;-50
2022/10/12 00:58:14;;;;;;;;;;;;;;;;;;1053756;28;2212;-50
2022/10/12 00:58:46;;;;;;;;;;;;;;;;;;1050654;28;2091;-50
2022/10/12 00:59:25;;;;;;;;;;;;;;;;;;1049040;28;1977;-53
2022/10/12 00:59:59;;;;;;;;;;;;;;;;;;1045170;28;2117;-47
2022/10/12 01:00:30;;;;;;;;;;;;;;;;;;1043358;28;2211;-51
2022/10/12 01:01:02;;;;;;;;;;;;;;;;;;1042123;28;2392;-49
2022/10/12 01:01:34;;;;;;;;;;;;;;;;;;1041793;28;2299;-52
2022/10/12 01:02:05;;;;;;;;;;;;;;;;;;1042448;28;2078;-51
2022/10/12 01:02:37;;;;;;;;;;;;;;;;;;1047231;28;2101;-46
2022/10/12 01:03:09;;;;;;;;;;;;;;;;;;1050154;28;2240;-47
2022/10/12 01:03:40;;;;;;;;;;;;;;;;;;1048222;28;2895;-52
2022/10/12 01:04:11;;;;;;;;;;;;;;;;;;1053812;28;1724;-50
2022/10/12 01:04:41;;;;;;;;;;;;;;;;;;1053559;28;2141;-47
2022/10/12 01:05:12;;;;;;;;;;;;;;;;;;1051945;28;1853;-47
2022/10/12 01:05:43;;;;;;;;;;;;;;;;;;1053959;28;2030;-47
2022/10/12 01:06:14;;;;;;;;;;;;;;;;;;1046016;28;2348;-49
2022/10/12 01:06:44;;;;;;;;;;;;;;;;;;1047534;28;2094;-49
2022/10/12 01:07:15;;;;;;;;;;;;;;;;;;1050023;28;2262;-47
2022/10/12 01:07:45;;;;;;;;;;;;;;;;;;1050924;28;2011;-48
2022/10/12 01:08:16;;;;;;;;;;;;;;;;;;1053632;28;2307;-49
2022/10/12 01:08:47;;;;;;;;;;;;;;;;;;1052330;28;2093;-46
2022/10/12 01:09:18;;;;;;;;;;;;;;;;;;1054211;28;2019;-49
2022/10/12 01:09:50;;;;;;;;;;;;;;;;;;1054132;28;1999;-48
2022/10/12 01:10:21;;;;;;;;;;;;;;;;;;1042475;28;2020;-47
2022/10/12 01:10:51;;;;;;;;;;;;;;;;;;1043226;28;1872;-49
2022/10/12 01:11:21;;;;;;;;;;;;;;;;;;1044281;28;2155;-48
2022/10/12 01:11:52;;;;;;;;;;;;;;;;;;1044752;28;1847;-50
2022/10/12 01:12:23;;;;;;;;;;;;;;;;;;1052639;28;1992;-50
2022/10/12 01:12:54;;;;;;;;;;;;;;;;;;1048119;28;2797;-50
2022/10/12 01:13:25;;;;;;;;;;;;;;;;;;1041462;28;2026;-44
2022/10/12 01:13:56;;;;;;;;;;;;;;;;;;1036999;28;2616;-52
2022/10/12 01:14:26;;;;;;;;;;;;;;;;;;1038011;28;2307;-49
2022/10/12 01:14:57;;;;;;;;;;;;;;;;;;1038784;28;2342;-50
2022/10/12 01:15:31;;;;;;;;;;;;;;;;;;1042801;28;2413;-47
2022/10/12 01:16:09;;;;;;;;;;;;;;;;;;1044927;28;2321;-47
2022/10/12 01:16:49;;;;;;;;;;;;;;;;;;1043994;28;2069;-46
2022/10/12 01:17:39;;;;;;;;;;;;;;;;;;1050081;28;1780;-47
2022/10/12 01:18:09;;;;;;;;;;;;;;;;;;1053008;28;2433;-48
2022/10/12 01:18:56;;;;;;;;;;;;;;;;;;1051470;28;1668;-51
2022/10/12 01:19:43;;;;;;;;;;;;;;;;;;1052782;28;2090;-52
2022/10/12 01:20:27;;;;;;;;;;;;;;;;;;1047630;28;2262;-49
2022/10/12 01:21:00;;;;;;;;;;;;;;;;;;1045002;28;2674;-47
2022/10/12 01:21:35;;;;;;;;;;;;;;;;;;1047193;28;1535;-48
2022/10/12 01:22:07;;;;;;;;;;;;;;;;;;1043445;28;2650;-52
2022/10/12 01:22:43;;;;;;;;;;;;;;;;;;1049315;28;1385;-45
2022/10/12 01:23:17;;;;;;;;;;;;;;;;;;1048021;28;2214;-50
2022/10/12 01:24:04;;;;;;;;;;;;;;;;;;1050875;28;2403;-53
2022/10/12 01:24:53;;;;;;;;;;;;;;;;;;1052548;28;2185;-48
2022/10/12 01:25:34;;;;;;;;;;;;;;;;;;1055555;28;1877;-49
2022/10/12 01:26:07;;;;;;;;;;;;;;;;;;1052795;28;2570;-47
2022/10/12 01:26:38;;;;;;;;;;;;;;;;;;1048906;28;2312;-49
2022/10/12 01:27:14;;;;;;;;;;;;;;;;;;1049393;28;2395;-50
2022/10/12 01:27:46;;;;;;;;;;;;;;;;;;1049197;28;2185;-50
2022/10/12 01:28:40;;;;;;;;;;;;;;;;;;1048581;28;1941;-45
2022/10/12 01:29:20;;;;;;;;;;;;;;;;;;1051529;28;2022;-46
2022/10/12 01:30:03;;;;;;;;;;;;;;;;;;1052668;28;2157;-46
2022/10/12 01:30:35;;;;;;;;;;;;;;;;;;1048676;28;2191;-47
2022/10/12 01:31:14;;;;;;;;;;;;;;;;;;1048397;28;2489;-48
2022/10/12 01:32:02;;;;;;;;;;;;;;;;;;1047480;28;1908;-49
2022/10/12 01:32:45;;;;;;;;;;;;;;;;;;1049603;28;2471;-46
2022/10/12 01:33:21;;;;;;;;;;;;;;;;;;1047743;28;2439;-48
2022/10/12 01:33:55;;;;;;;;;;;;;;;;;;1046326;28;2117;-47
2022/10/12 01:34:34;;;;;;;;;;;;;;;;;;1047416;28;2195;-50
2022/10/12 01:35:09;;;;;;;;;;;;;;;;;;1048986;28;2176;-49
2022/10/12 01:35:58;;;;;;;;;;;;;;;;;;1051006;28;2063;-50
2022/10/12 01:36:34;;;;;;;;;;;;;;;;;;1051233;28;2113;-48
2022/10/12 01:37:12;;;;;;;;;;;;;;;;;;1051544;28;2718;-45
2022/10/12 01:37:53;;;;;;;;;;;;;;;;;;1053375;28;1806;-46
2022/10/12 01:38:42;;;;;;;;;;;;;;;;;;1049028;28;2749;-48
2022/10/12 01:39:29;;;;;;;;;;;;;;;;;;1047561;28;1732;-50
2022/10/12 01:40:14;;;;;;;;;;;;;;;;;;1045460;28;2754;-48
2022/10/12 01:40:49;;;;;;;;;;;;;;;;;;1049196;28;2471;-48
2022/10/12 01:41:22;;;;;;;;;;;;;;;;;;1041520;28;2855;-47
2022/10/12 01:41:55;;;;;;;;;;;;;;;;;;1039324;28;2250;-48
2022/10/12 01:42:27;;;;;;;;;;;;;;;;;;1038642;28;2427;-44
2022/10/12 01:42:58;;;;;;;;;;;;;;;;;;1041496;28;2015;-52
2022/10/12 01:43:32;;;;;;;;;;;;;;;;;;1046458;28;2166;-47
2022/10/12 01:44:03;;;;;;;;;;;;;;;;;;1047953;28;1865;-51
2022/10/12 01:44:34;;;;;;;;;;;;;;;;;;1047241;28;1901;-50
2022/10/12 01:45:06;;;;;;;;;;;;;;;;;;1049049;28;2041;-45
2022/10/12 01:45:37;;;;;;;;;;;;;;;;;;1047501;28;2057;-51
2022/10/12 01:46:13;;;;;;;;;;;;;;;;;;1039711;28;1908;-45
2022/10/12 01:46:45;;;;;;;;;;;;;;;;;;1043109;28;2412;-48
2022/10/12 01:47:15;;;;;;;;;;;;;;;;;;1045154;28;2441;-49
2022/10/12 01:47:51;;;;;;;;;;;;;;;;;;1045946;28;2639;-45
2022/10/12 01:48:21;;;;;;;;;;;;;;;;;;1048231;28;2178;-50
2022/10/12 01:49:00;;;;;;;;;;;;;;;;;;1048211;28;2116;-47
2022/10/12 01:49:32;;;;;;;;;;;;;;;;;;1047816;28;2099;-53
2022/10/12 01:50:04;;;;;;;;;;;;;;;;;;1049013;28;2469;-53
2022/10/12 01:50:54;;;;;;;;;;;;;;;;;;1044814;28;2409;-46
2022/10/12 01:51:38;;;;;;;;;;;;;;;;;;1047028;28;1768;-48
2022/10/12 01:52:24;;;;;;;;;;;;;;;;;;1047906;28;2271;-46
2022/10/12 01:53:12;;;;;;;;;;;;;;;;;;1048806;28;2523;-47
2022/10/12 01:53:52;;;;;;;;;;;;;;;;;;1047538;28;1890;-50
2022/10/12 01:54:32;;;;;;;;;;;;;;;;;;1048634;28;2093;-49
2022/10/12 01:55:07;;;;;;;;;;;;;;;;;;1048503;28;2142;-48
2022/10/12 01:55:43;;;;;;;;;;;;;;;;;;1049635;28;1842;-51
2022/10/12 01:56:20;;;;;;;;;;;;;;;;;;1047661;28;2704;-47
2022/10/12 01:56:50;;;;;;;;;;;;;;;;;;1050043;28;2023;-49
2022/10/12 01:57:24;;;;;;;;;;;;;;;;;;1049457;28;2085;-48
2022/10/12 01:58:08;;;;;;;;;;;;;;;;;;1051087;28;1901;-49
2022/10/12 01:58:46;;;;;;;;;;;;;;;;;;1047503;28;1242;-51
2022/10/12 01:59:30;;;;;;;;;;;;;;;;;;1048361;28;2140;-49
2022/10/12 02:00:06;;;;;;;;;;;;;;;;;;1047722;28;2126;-52
2022/10/12 02:00:42;;;;;;;;;;;;;;;;;;1047212;28;2041;-48
2022/10/12 02:01:35;;;;;;;;;;;;;;;;;;1049200;28;1921;-46
2022/10/12 02:02:17;;;;;;;;;;;;;;;;;;1049079;28;2314;-45
2022/10/12 02:02:47;;;;;;;;;;;;;;;;;;1049519;28;2420;-49
2022/10/12 02:03:40;;;;;;;;;;;;;;;;;;1049917;28;2085;-47
2022/10/12 02:04:27;;;;;;;;;;;;;;;;;;1044499;28;2086;-50
2022/10/12 02:05:02;;;;;;;;;;;;;;;;;;1044228;28;2114;-48
2022/10/12 02:05:37;;;;;;;;;;;;;;;;;;1045524;28;1863;-47
2022/10/12 02:06:10;;;;;;;;;;;;;;;;;;1048137;28;2132;-51
2022/10/12 02:06:44;;;;;;;;;;;;;;;;;;1047093;28;1919;-47
2022/10/12 02:07:36;;;;;;;;;;;;;;;;;;1049669;28;1854;-47
2022/10/12 02:08:09;;;;;;;;;;;;;;;;;;1048587;28;2157;-47
2022/10/12 02:08:49;;;;;;;;;;;;;;;;;;1047292;28;1934;-48
2022/10/12 02:09:19;;;;;;;;;;;;;;;;;;1049395;28;1532;-45
2022/10/12 02:09:51;;;;;;;;;;;;;;;;;;1047097;28;2897;-46
2022/10/12 02:10:32;;;;;;;;;;;;;;;;;;1048099;28;2340;-47
2022/10/12 02:11:05;;;;;;;;;;;;;;;;;;1049423;28;1906;-45
2022/10/12 02:11:37;;;;;;;;;;;;;;;;;;1049091;28;2152;-49
2022/10/12 02:12:11;;;;;;;;;;;;;;;;;;1051474;28;1707;-48
2022/10/12 02:12:42;;;;;;;;;;;;;;;;;;1049417;28;2424;-48
2022/10/12 02:13:14;;;;;;;;;;;;;;;;;;1048415;28;2017;-45
2022/10/12 02:13:50;;;;;;;;;;;;;;;;;;1048538;28;2108;-47
2022/10/12 02:14:22;;;;;;;;;;;;;;;;;;1048845;28;2150;-49
2022/10/12 02:14:55;;;;;;;;;;;;;;;;;;1048648;28;2007;-49
2022/10/12 02:15:26;;;;;;;;;;;;;;;;;;1043435;28;1918;-46
2022/10/12 02:15:58;;;;;;;;;;;;;;;;;;1045067;28;2049;-46
2022/10/12 02:16:33;;;;;;;;;;;;;;;;;;1047259;28;1879;-51
2022/10/12 02:17:07;;;;;;;;;;;;;;;;;;1048647;28;2061;-50
2022/10/12 02:17:38;;;;;;;;;;;;;;;;;;1049735;28;2723;-47
2022/10/12 02:18:11;;;;;;;;;;;;;;;;;;1050976;28;2090;-50
2022/10/12 02:18:43;;;;;;;;;;;;;;;;;;1048136;28;2161;-46
2022/10/12 02:19:16;;;;;;;;;;;;;;;;;;1049526;28;2107;-51
2022/10/12 02:19:49;;;;;;;;;;;;;;;;;;1049276;28;2481;-47
2022/10/12 02:20:22;;;;;;;;;;;;;;;;;;1048426;28;2146;-51
2022/10/12 02:20:53;;;;;;;;;;;;;;;;;;1051126;28;2062;-48
2022/10/12 02:21:26;;;;;;;;;;;;;;;;;;1051818;28;2518;-46
2022/10/12 02:21:58;;;;;;;;;;;;;;;;;;1048191;28;1685;-46
2022/10/12 02:22:34;;;;;;;;;;;;;;;;;;1048221;28;1896;-50
2022/10/12 02:23:06;;;;;;;;;;;;;;;;;;1048100;28;2153;-49
2022/10/12 02:23:37;;;;;;;;;;;;;;;;;;1045646;28;1816;-49
2022/10/12 02:24:08;;;;;;;;;;;;;;;;;;1045737;28;2653;-47
2022/10/12 02:24:41;;;;;;;;;;;;;;;;;;1046258;28;1931;-46
2022/10/12 02:25:14;;;;;;;;;;;;;;;;;;1047127;28;2169;-48
2022/10/12 02:25:45;;;;;;;;;;;;;;;;;;1044018;28;2023;-46
2022/10/12 02:26:16;;;;;;;;;;;;;;;;;;1046713;28;2252;-50
2022/10/12 02:26:48;;;;;;;;;;;;;;;;;;1045623;28;2051;-46
2022/10/12 02:27:20;;;;;;;;;;;;;;;;;;1048558;28;2118;-45
2022/10/12 02:27:59;;;;;;;;;;;;;;;;;;1049126;28;2759;-47
2022/10/12 02:28:31;;;;;;;;;;;;;;;;;;1047902;28;1964;-48
2022/10/12 02:29:02;;;;;;;;;;;;;;;;;;1048281;28;2115;-46
2022/10/12 02:29:35;;;;;;;;;;;;;;;;;;1047893;28;2099;-49
2022/10/12 02:30:06;;;;;;;;;;;;;;;;;;1047115;28;2053;-51
2022/10/12 02:30:42;;;;;;;;;;;;;;;;;;1049615;28;2413;-46
2022/10/12 02:31:34;;;;;;;;;;;;;;;;;;1050694;28;2122;-48
2022/10/12 02:32:09;;;;;;;;;;;;;;;;;;1047712;28;2414;-46
2022/10/12 02:33:00;;;;;;;;;;;;;;;;;;1050186;28;1892;-51
2022/10/12 02:33:35;;;;;;;;;;;;;;;;;;1049825;28;2414;-45
2022/10/12 02:34:09;;;;;;;;;;;;;;;;;;1050662;28;2069;-47
2022/10/12 02:34:45;;;;;;;;;;;;;;;;;;1050554;28;2162;-46
2022/10/12 02:35:21;;;;;;;;;;;;;;;;;;1051681;28;1644;-47
2022/10/12 02:35:57;;;;;;;;;;;;;;;;;;1047134;28;2125;-49
2022/10/12 02:36:34;;;;;;;;;;;;;;;;;;1047703;28;1623;-49
2022/10/12 02:37:20;;;;;;;;;;;;;;;;;;1048649;28;2080;-47
2022/10/12 02:37:59;;;;;;;;;;;;;;;;;;1054527;28;2100;-46
2022/10/12 02:38:32;;;;;;;;;;;;;;;;;;1054422;28;2076;-51
2022/10/12 02:39:06;;;;;;;;;;;;;;;;;;1055516;28;1837;-47
2022/10/12 02:39:53;;;;;;;;;;;;;;;;;;1053829;28;1669;-52
2022/10/12 02:40:34;;;;;;;;;;;;;;;;;;1049070;28;2007;-46
2022/10/12 02:41:08;;;;;;;;;;;;;;;;;;1050865;28;2076;-46
2022/10/12 02:41:49;;;;;;;;;;;;;;;;;;1050353;28;1681;-50
2022/10/12 02:42:26;;;;;;;;;;;;;;;;;;1051129;28;1994;-49
2022/10/12 02:43:00;;;;;;;;;;;;;;;;;;1051840;28;1574;-46
2022/10/12 02:43:35;;;;;;;;;;;;;;;;;;1048832;28;2023;-46
2022/10/12 02:44:09;;;;;;;;;;;;;;;;;;1048149;28;2062;-50
2022/10/12 02:44:40;;;;;;;;;;;;;;;;;;1049513;28;1941;-48
2022/10/12 02:45:12;;;;;;;;;;;;;;;;;;1052730;28;1334;-50
2022/10/12 02:45:43;;;;;;;;;;;;;;;;;;1049153;28;1991;-50
2022/10/12 02:46:15;;;;;;;;;;;;;;;;;;1047711;28;1914;-44
2022/10/12 02:46:46;;;;;;;;;;;;;;;;;;1049357;28;2071;-49
2022/10/12 02:47:18;;;;;;;;;;;;;;;;;;1048066;28;1933;-50
2022/10/12 02:47:50;;;;;;;;;;;;;;;;;;1047474;28;2198;-47
2022/10/12 02:48:22;;;;;;;;;;;;;;;;;;1048211;28;2530;-50
2022/10/12 02:48:59;;;;;;;;;;;;;;;;;;1050069;28;2083;-45
2022/10/12 02:49:31;;;;;;;;;;;;;;;;;;1051749;28;1617;-48
2022/10/12 02:50:02;;;;;;;;;;;;;;;;;;1047924;28;2096;-48
2022/10/12 02:50:33;;;;;;;;;;;;;;;;;;1050997;28;2125;-47
2022/10/12 02:51:05;;;;;;;;;;;;;;;;;;1045640;28;2045;-51
2022/10/12 02:51:38;;;;;;;;;;;;;;;;;;1044080;28;2584;-46
2022/10/12 02:52:09;;;;;;;;;;;;;;;;;;1046223;28;1967;-48
2022/10/12 02:52:39;;;;;;;;;;;;;;;;;;1047843;28;1769;-52
2022/10/12 02:53:11;;;;;;;;;;;;;;;;;;1046405;28;1920;-53
2022/10/12 02:53:43;;;;;;;;;;;;;;;;;;1048297;28;1494;-47
2022/10/12 02:54:14;;;;;;;;;;;;;;;;;;1048405;28;2183;-50
2022/10/12 02:54:44;;;;;;;;;;;;;;;;;;1050983;28;1998;-50
2022/10/12 02:55:15;;;;;;;;;;;;;;;;;;1048474;28;2466;-47
2022/10/12 02:55:48;;;;;;;;;;;;;;;;;;1049610;28;2598;-45
2022/10/12 02:56:19;;;;;;;;;;;;;;;;;;1048408;28;2105;-48
2022/10/12 02:56:49;;;;;;;;;;;;;;;;;;1047478;28;2166;-51
2022/10/12 02:57:20;;;;;;;;;;;;;;;;;;1047585;28;1713;-48
2022/10/12 02:57:50;;;;;;;;;;;;;;;;;;1045904;28;2120;-47
2022/10/12 02:58:20;;;;;;;;;;;;;;;;;;1045677;28;2336;-49
2022/10/12 02:58:51;;;;;;;;;;;;;;;;;;1046015;28;2257;-44
2022/10/12 02:59:21;;;;;;;;;;;;;;;;;;1049466;28;2901;-51
2022/10/12 02:59:52;;;;;;;;;;;;;;;;;;1040148;28;2100;-45
2022/10/12 03:00:23;;;;;;;;;;;;;;;;;;1040080;28;1672;-48
2022/10/12 03:00:54;;;;;;;;;;;;;;;;;;1037941;28;2130;-47
2022/10/12 03:01:24;;;;;;;;;;;;;;;;;;1039245;28;2049;-48
2022/10/12 03:01:54;;;;;;;;;;;;;;;;;;1051103;28;2333;-52
2022/10/12 03:02:24;;;;;;;;;;;;;;;;;;1044520;28;2799;-46
2022/10/12 03:02:56;;;;;;;;;;;;;;;;;;1049607;28;2580;-45
2022/10/12 03:03:27;;;;;;;;;;;;;;;;;;1044617;28;2625;-48
2022/10/12 03:03:57;;;;;;;;;;;;;;;;;;1044064;28;2439;-48
2022/10/12 03:04:28;;;;;;;;;;;;;;;;;;1047198;28;2414;-45
2022/10/12 03:04:58;;;;;;;;;;;;;;;;;;1047921;28;1647;-50
2022/10/12 03:05:29;;;;;;;;;;;;;;;;;;1048102;28;2542;-44
2022/10/12 03:05:59;;;;;;;;;;;;;;;;;;1047915;28;1638;-48
2022/10/12 03:06:30;;;;;;;;;;;;;;;;;;1049334;28;2102;-46
2022/10/12 03:07:00;;;;;;;;;;;;;;;;;;1048235;28;1571;-48
2022/10/12 03:07:30;;;;;;;;;;;;;;;;;;1049050;28;2166;-47
2022/10/12 03:08:01;;;;;;;;;;;;;;;;;;1047433;28;2229;-46
2022/10/12 03:08:31;;;;;;;;;;;;;;;;;;1050197;28;2582;-46
2022/10/12 03:09:03;;;;;;;;;;;;;;;;;;1050673;28;2339;-46
2022/10/12 03:09:33;;;;;;;;;;;;;;;;;;1048995;28;2018;-48
2022/10/12 03:10:04;;;;;;;;;;;;;;;;;;1051074;28;2304;-48
2022/10/12 03:10:35;;;;;;;;;;;;;;;;;;1048076;28;2041;-49
2022/10/12 03:11:06;;;;;;;;;;;;;;;;;;1047874;28;1964;-49
2022/10/12 03:11:36;;;;;;;;;;;;;;;;;;1048947;28;2095;-45
2022/10/12 03:12:07;;;;;;;;;;;;;;;;;;1050864;28;2170;-50
2022/10/12 03:12:37;;;;;;;;;;;;;;;;;;1052310;28;1974;-47
2022/10/12 03:13:08;;;;;;;;;;;;;;;;;;1050182;28;2502;-48
2022/10/12 03:13:39;;;;;;;;;;;;;;;;;;1047769;28;2470;-48
2022/10/12 03:14:16;;;;;;;;;;;;;;;;;;1050413;28;2462;-47
2022/10/12 03:14:46;;;;;;;;;;;;;;;;;;1046263;28;2430;-49
2022/10/12 03:15:17;;;;;;;;;;;;;;;;;;1047302;28;2957;-50
2022/10/12 03:15:47;;;;;;;;;;;;;;;;;;1047210;28;1994;-48
2022/10/12 03:16:18;;;;;;;;;;;;;;;;;;1039163;28;2062;-46
2022/10/12 03:16:49;;;;;;;;;;;;;;;;;;1043200;28;2170;-48
2022/10/12 03:17:19;;;;;;;;;;;;;;;;;;1041395;28;2552;-47
2022/10/12 03:17:50;;;;;;;;;;;;;;;;;;1045527;28;2491;-44
2022/10/12 03:18:20;;;;;;;;;;;;;;;;;;1048615;28;2059;-51
2022/10/12 03:18:51;;;;;;;;;;;;;;;;;;1048614;28;2573;-48
2022/10/12 03:19:21;;;;;;;;;;;;;;;;;;1051175;28;2072;-46
2022/10/12 03:19:51;;;;;;;;;;;;;;;;;;1043252;28;2435;-47
2022/10/12 03:20:22;;;;;;;;;;;;;;;;;;1043543;28;2889;-47
2022/10/12 03:20:53;;;;;;;;;;;;;;;;;;1049008;28;2226;-47
2022/10/12 03:21:24;;;;;;;;;;;;;;;;;;1039681;28;1678;-48
2022/10/12 03:21:54;;;;;;;;;;;;;;;;;;1044068;28;2118;-47
2022/10/12 03:22:24;;;;;;;;;;;;;;;;;;1045447;28;2371;-48
2022/10/12 03:22:54;;;;;;;;;;;;;;;;;;1045499;28;2369;-48
2022/10/12 03:23:25;;;;;;;;;;;;;;;;;;1050155;28;2366;-50
2022/10/12 03:23:55;;;;;;;;;;;;;;;;;;1048026;28;2455;-49
2022/10/12 03:24:26;;;;;;;;;;;;;;;;;;1050282;28;2501;-47
2022/10/12 03:24:58;;;;;;;;;;;;;;;;;;1047398;28;2120;-48
2022/10/12 03:25:30;;;;;;;;;;;;;;;;;;1048448;28;1963;-46
2022/10/12 03:26:00;;;;;;;;;;;;;;;;;;1048112;28;2553;-47
2022/10/12 03:26:30;;;;;;;;;;;;;;;;;;1047865;28;2040;-51
2022/10/12 03:27:01;;;;;;;;;;;;;;;;;;1048475;28;2383;-45
2022/10/12 03:27:31;;;;;;;;;;;;;;;;;;1049128;28;2927;-46
2022/10/12 03:28:01;;;;;;;;;;;;;;;;;;1052308;28;1988;-47
2022/10/12 03:28:32;;;;;;;;;;;;;;;;;;1049540;28;2063;-50
2022/10/12 03:29:02;;;;;;;;;;;;;;;;;;1051377;28;2445;-48
2022/10/12 03:29:33;;;;;;;;;;;;;;;;;;1049571;28;2358;-48
2022/10/12 03:30:03;;;;;;;;;;;;;;;;;;1049708;28;3026;-50
2022/10/12 03:30:34;;;;;;;;;;;;;;;;;;1048478;28;2433;-50
2022/10/12 03:31:05;;;;;;;;;;;;;;;;;;1048905;28;2501;-45
2022/10/12 03:31:36;;;;;;;;;;;;;;;;;;1045999;28;2081;-49
2022/10/12 03:32:06;;;;;;;;;;;;;;;;;;1045608;28;1466;-49
2022/10/12 03:32:37;;;;;;;;;;;;;;;;;;1045340;28;2397;-44
2022/10/12 03:33:07;;;;;;;;;;;;;;;;;;1043553;28;2441;-48
2022/10/12 03:33:38;;;;;;;;;;;;;;;;;;1049115;28;1901;-48
2022/10/12 03:34:09;;;;;;;;;;;;;;;;;;1049422;28;1699;-50
2022/10/12 03:34:39;;;;;;;;;;;;;;;;;;1049044;28;2431;-47
2022/10/12 03:35:09;;;;;;;;;;;;;;;;;;1050144;28;2418;-47
2022/10/12 03:35:42;;;;;;;;;;;;;;;;;;1051942;28;1666;-48
2022/10/12 03:36:12;;;;;;;;;;;;;;;;;;1053083;28;3121;-52
2022/10/12 03:36:43;;;;;;;;;;;;;;;;;;1054544;28;2040;-46
2022/10/12 03:37:13;;;;;;;;;;;;;;;;;;1053770;28;2495;-48
2022/10/12 03:37:43;;;;;;;;;;;;;;;;;;1054731;28;1764;-47
2022/10/12 03:38:14;;;;;;;;;;;;;;;;;;1049684;28;1968;-47
2022/10/12 03:38:44;;;;;;;;;;;;;;;;;;1048317;28;2235;-46
2022/10/12 03:39:15;;;;;;;;;;;;;;;;;;1049128;28;2956;-49
2022/10/12 03:39:58;;;;;;;;;;;;;;;;;;1050900;28;2315;-49
2022/10/12 03:40:36;;;;;;;;;;;;;;;;;;1051995;28;2076;-45
2022/10/12 03:41:07;;;;;;;;;;;;;;;;;;1052557;28;2477;-46
2022/10/12 03:41:37;;;;;;;;;;;;;;;;;;1052544;28;2460;-48
2022/10/12 03:42:08;;;;;;;;;;;;;;;;;;1052231;28;1708;-46
2022/10/12 03:42:39;;;;;;;;;;;;;;;;;;1053263;28;2171;-47
2022/10/12 03:43:10;;;;;;;;;;;;;;;;;;1045828;28;2302;-47
2022/10/12 03:43:40;;;;;;;;;;;;;;;;;;1040944;28;2469;-45
2022/10/12 03:44:11;;;;;;;;;;;;;;;;;;1041928;28;1688;-49
2022/10/12 03:44:42;;;;;;;;;;;;;;;;;;1040082;28;2328;-47
2022/10/12 03:45:12;;;;;;;;;;;;;;;;;;1049919;28;1587;-47
2022/10/12 03:45:43;;;;;;;;;;;;;;;;;;1053723;28;2468;-53
2022/10/12 03:46:14;;;;;;;;;;;;;;;;;;1051304;28;2745;-45
2022/10/12 03:46:51;;;;;;;;;;;;;;;;;;1049174;28;2097;-49
2022/10/12 03:47:21;;;;;;;;;;;;;;;;;;1047578;28;1232;-46
2022/10/12 03:47:52;;;;;;;;;;;;;;;;;;1047805;28;2797;-51
2022/10/12 03:48:22;;;;;;;;;;;;;;;;;;1050080;28;2327;-51
2022/10/12 03:48:53;;;;;;;;;;;;;;;;;;1048258;28;2689;-46
2022/10/12 03:49:23;;;;;;;;;;;;;;;;;;1052207;28;2518;-49
2022/10/12 03:49:54;;;;;;;;;;;;;;;;;;1055132;28;2521;-49
2022/10/12 03:50:24;;;;;;;;;;;;;;;;;;1054002;28;2081;-48
2022/10/12 03:50:56;;;;;;;;;;;;;;;;;;1048143;28;2401;-45
2022/10/12 03:51:27;;;;;;;;;;;;;;;;;;1041747;28;2487;-47
2022/10/12 03:51:57;;;;;;;;;;;;;;;;;;1038566;28;1666;-47
2022/10/12 03:52:27;;;;;;;;;;;;;;;;;;1036283;28;2491;-50